Terminal Aerodrome Forecast
Issued by NWS Jacksonville, FL

Home | Current Version | Previous Version | Text Only | Print | Product List | Glossary On
Versions: 1 2 3 4 5 6 7 8 9 10 11 12 13 14 15 16 17 18 19 20 21 22 23 24 25 26
000
FTUS42 KJAX 280711 AAB
TAFGNV
TAF AMD
KGNV 280711Z 2807/0106 03010KT P6SM VCSH OVC020
     FM280800 02010KT 6SM -RA BR SCT008 OVC015
     FM281100 03010KT 4SM RA BR SCT004 BKN007 OVC015
     FM281300 04011G16KT 5SM -RA BR BKN004 OVC007
     FM010000 03009KT 5SM -RA BR OVC004=

USA.gov is the U.S. government's official web portal to all federal, state and local government web resources and services.